Time;durP1;ratioP1;P1;durP2;ratioP2;P2;SDS_P1;SDS_P2;PMS_P1;PMS_P2;Temp;Humidity;BMP_temperature;BMP_pressure;BME280_temperature;BME280_humidity;BME280_pressure;Samples;Min_cycle;Max_cycle;Signal;HPM_P1;HPM_P2
2022/06/27 00:00:07;;;;;;;19.45;17.15;;;18.00;8.60;;;18.79;100.00;99871.84;5040207;27;130304;-76
2022/06/27 00:02:44;;;;;;;19.42;17.27;;;18.00;16.70;;;18.72;100.00;99866.19;5025101;27;129307;-78
2022/06/27 00:05:13;;;;;;;23.08;17.38;;;18.00;28.50;;;18.67;100.00;99865.31;5040503;27;119728;-76
2022/06/27 00:07:42;;;;;;;18.17;16.38;;;18.00;55.10;;;18.60;100.00;99870.63;5025898;27;118541;-76
2022/06/27 00:10:11;;;;;;;22.30;17.90;;;18.00;84.10;;;18.55;100.00;99864.63;5039953;27;130928;-76
2022/06/27 00:12:40;;;;;;;21.83;17.80;;;18.00;99.90;;;18.52;100.00;99868.88;5039838;27;129714;-76
2022/06/27 00:15:11;;;;;;;19.98;17.40;;;17.90;99.90;;;18.51;100.00;99872.75;5024184;27;122370;-78
2022/06/27 00:17:40;;;;;;;20.25;18.17;;;17.90;99.90;;;18.45;100.00;99864.00;5040142;27;121834;-76
2022/06/27 00:20:12;;;;;;;22.95;18.23;;;17.90;99.90;;;18.42;100.00;99864.72;5039527;27;129673;-79
2022/06/27 00:22:41;;;;;;;22.17;18.13;;;17.80;99.90;;;18.37;100.00;99872.41;5040053;27;129686;-78
2022/06/27 00:25:12;;;;;;;19.88;17.77;;;17.80;99.90;;;18.37;100.00;99881.47;5039776;27;119757;-78
2022/06/27 00:27:40;;;;;;;20.33;18.15;;;17.80;99.90;;;18.36;100.00;99882.63;5039668;27;119671;-77
2022/06/27 00:30:11;;;;;;;21.50;19.15;;;17.70;99.90;;;18.31;100.00;99880.94;5024799;27;129881;-77
2022/06/27 00:32:39;;;;;;;21.67;19.33;;;17.70;99.90;;;18.25;100.00;99876.06;5024995;27;128299;-77
2022/06/27 00:35:11;;;;;;;20.67;18.48;;;17.60;99.90;;;18.23;100.00;99879.16;5024752;27;118862;-76
2022/06/27 00:37:39;;;;;;;19.88;17.98;;;17.60;99.90;;;18.30;100.00;99882.06;5025084;27;118364;-76
2022/06/27 00:40:10;;;;;;;23.88;19.98;;;17.60;99.90;;;18.30;100.00;99886.78;5023321;27;129880;-76
2022/06/27 00:42:38;;;;;;;20.15;18.05;;;17.60;99.90;;;18.31;100.00;99885.63;5039412;27;129534;-77
2022/06/27 00:45:08;;;;;;;19.73;17.63;;;17.50;99.90;;;18.33;100.00;99884.13;5021515;27;119696;-77
2022/06/27 00:47:37;;;;;;;21.83;19.63;;;17.60;99.90;;;18.32;100.00;99893.53;5039790;27;119802;-76
2022/06/27 00:50:09;;;;;;;21.45;19.20;;;17.50;99.90;;;18.27;100.00;99884.75;5024097;27;130002;-77
2022/06/27 00:52:39;;;;;;;19.42;17.52;;;17.50;99.90;;;18.27;100.00;99896.50;5023541;27;129365;-77
2022/06/27 00:55:09;;;;;;;21.23;17.75;;;17.50;99.90;;;18.30;100.00;99890.31;5039847;27;119802;-77
2022/06/27 00:57:38;;;;;;;21.85;19.60;;;17.50;99.90;;;18.28;100.00;99887.13;5040061;27;120559;-77
2022/06/27 01:00:08;;;;;;;22.10;19.75;;;17.50;99.90;;;18.22;100.00;99894.03;5024505;27;130422;-77
2022/06/27 01:02:38;;;;;;;22.38;19.98;;;17.50;99.90;;;18.19;100.00;99894.75;5021002;27;130496;-76
2022/06/27 01:05:11;;;;;;;21.38;19.08;;;17.50;99.90;;;18.20;100.00;99890.84;5038038;27;122332;-76
2022/06/27 01:07:41;;;;;;;20.48;18.30;;;17.50;99.90;;;18.24;100.00;99894.47;5007882;27;120830;-77
2022/06/27 01:10:10;;;;;;;19.73;17.73;;;17.40;99.90;;;18.27;100.00;99891.03;5038944;27;130263;-76
2022/06/27 01:12:41;;;;;;;22.10;19.80;;;17.40;99.90;;;18.27;100.00;99896.50;5039114;27;129478;-78
2022/06/27 01:15:12;;;;;;;24.05;19.98;;;17.40;99.90;;;18.17;100.00;99894.31;5024525;27;119562;-78
2022/06/27 01:17:42;;;;;;;21.35;19.05;;;17.40;99.90;;;18.07;100.00;99897.56;5007703;27;118468;-75
2022/06/27 01:20:13;;;;;;;23.02;20.55;;;17.40;99.90;;;18.01;100.00;99893.47;5023579;27;129741;-77
2022/06/27 01:22:43;;;;;;;21.38;19.20;;;17.30;99.90;;;18.04;100.00;99890.03;5008055;27;128637;-77
2022/06/27 01:25:14;;;;;;;22.70;20.35;;;17.30;99.90;;;18.06;100.00;99891.28;5007618;27;119100;-77
2022/06/27 01:27:44;;;;;;;22.08;19.77;;;17.30;99.90;;;18.07;100.00;99890.13;5021192;27;119461;-75
2022/06/27 01:30:14;;;;;;;22.27;20.00;;;17.30;99.90;;;18.08;100.00;99893.69;5023469;27;131031;-79
2022/06/27 01:32:43;;;;;;;23.67;20.60;;;17.30;99.90;;;18.05;100.00;99894.38;5007142;27;128899;-77
2022/06/27 01:35:12;;;;;;;22.02;19.10;;;17.30;99.90;;;18.01;100.00;99888.78;5020893;27;119510;-77
2022/06/27 01:37:43;;;;;;;22.63;20.23;;;17.30;99.90;;;18.02;100.00;99895.88;5020991;27;119442;-77
2022/06/27 01:40:12;;;;;;;24.73;20.42;;;17.30;99.90;;;17.98;100.00;99888.69;5027005;27;129564;-76
2022/06/27 01:42:42;;;;;;;22.63;20.08;;;17.30;99.90;;;17.96;100.00;99895.31;5024230;27;129686;-77
2022/06/27 01:45:11;;;;;;;21.35;19.17;;;17.30;99.90;;;18.01;100.00;99888.00;5027755;27;119384;-78
2022/06/27 01:47:42;;;;;;;22.30;19.88;;;17.30;99.90;;;17.99;100.00;99895.78;5011363;27;118888;-78
2022/06/27 01:50:16;;;;;;;23.25;19.80;;;17.20;99.90;;;17.92;100.00;99891.72;5023753;27;129383;-77
2022/06/27 01:52:53;;;;;;;23.00;20.30;;;17.20;99.90;;;17.95;100.00;99893.75;5024150;27;129753;-77
2022/06/27 01:55:24;;;;;;;23.08;19.90;;;17.20;99.90;;;18.04;100.00;99893.56;5041028;27;122272;-77
2022/06/27 01:57:53;;;;;;;21.77;19.48;;;17.30;99.90;;;18.12;100.00;99900.88;5024115;27;122002;-76
2022/06/27 02:00:22;;;;;;;23.08;19.45;;;17.30;99.90;;;18.15;100.00;99899.34;5027101;27;130339;-77
2022/06/27 02:03:00;;;;;;;20.98;18.88;;;17.40;99.90;;;18.20;100.00;99892.78;5042158;27;129939;-77
2022/06/27 02:05:35;;;;;;;21.10;18.90;;;17.40;99.90;;;18.25;100.00;99895.28;5027377;27;118971;-77
2022/06/27 02:08:06;;;;;;;22.98;20.67;;;17.40;99.90;;;18.36;100.00;99893.59;5024347;27;119515;-79
2022/06/27 02:10:35;;;;;;;20.92;18.70;;;17.50;99.90;;;18.41;100.00;99892.53;5010801;27;128474;-77
2022/06/27 02:13:04;;;;;;;23.88;21.38;;;17.50;99.90;;;18.42;100.00;99894.16;5026888;27;129575;-77
2022/06/27 02:15:33;;;;;;;22.27;19.67;;;17.60;99.90;;;18.40;100.00;99893.69;5044426;27;119738;-77
2022/06/27 02:18:02;;;;;;;24.95;19.90;;;17.50;99.90;;;18.38;100.00;99890.50;5027369;27;119285;-78
2022/06/27 02:20:31;;;;;;;22.73;20.50;;;17.50;99.90;;;18.40;100.00;99888.19;5022700;27;129940;-78
2022/06/27 02:23:00;;;;;;;23.25;20.83;;;17.50;99.90;;;18.45;100.00;99893.41;5041944;27;129579;-78
2022/06/27 02:25:31;;;;;;;22.20;19.75;;;17.60;99.90;;;18.52;100.00;99895.56;5041978;27;119612;-79
2022/06/27 02:28:00;;;;;;;21.02;18.15;;;17.60;99.90;;;18.66;100.00;99891.19;5036852;27;118776;-79
2022/06/27 02:30:29;;;;;;;19.10;17.20;;;17.70;99.90;;;18.84;100.00;99893.56;5055416;27;127434;-79
2022/06/27 02:32:58;;;;;;;21.20;19.10;;;17.80;99.90;;;18.99;100.00;99897.47;5051185;27;129083;-79
2022/06/27 02:35:28;;;;;;;20.88;18.77;;;17.80;99.90;;;18.99;100.00;99898.25;5051734;27;119137;-78
2022/06/27 02:37:58;;;;;;;20.52;18.33;;;17.80;99.90;;;19.02;100.00;99897.53;5035021;27;118111;-79
2022/06/27 02:40:31;;;;;;;22.20;18.55;;;17.90;99.90;;;19.12;100.00;99901.69;5016101;27;129341;-78
2022/06/27 02:43:01;;;;;;;18.92;17.00;;;18.00;99.90;;;19.25;100.00;99896.06;5043504;27;129858;-78
2022/06/27 02:45:30;;;;;;;19.17;17.17;;;18.00;98.40;;;19.40;100.00;99900.72;5023818;27;122310;-78
2022/06/27 02:48:00;;;;;;;19.42;17.05;;;18.00;65.80;;;19.50;100.00;99899.34;5042318;27;121717;-79
2022/06/27 02:50:31;;;;;;;28.15;18.13;;;18.20;27.00;;;19.62;100.00;99904.69;5044417;27;129893;-77
2022/06/27 02:53:13;;;;;;;20.58;18.38;;;18.20;8.20;;;19.71;100.00;99904.47;5026918;27;129320;-79
2022/06/27 02:55:54;;;;;;;20.40;16.65;;;18.30;1.00;;;19.83;100.00;99906.31;5023529;27;118661;-78
2022/06/27 02:58:34;;;;;;;18.27;16.23;;;18.40;1.00;;;20.31;100.00;99903.22;5026773;27;119293;-78
2022/06/27 03:01:05;;;;;;;16.88;14.07;;;18.80;1.00;;;20.68;96.84;99906.25;5022999;27;129866;-78
2022/06/27 03:03:34;;;;;;;17.20;14.38;;;19.10;1.00;;;20.79;95.72;99907.19;5026584;27;130261;-78
2022/06/27 03:06:07;;;;;;;18.50;13.95;;;19.10;1.00;;;21.60;92.89;99905.16;5023071;27;120145;-77
2022/06/27 03:08:40;;;;;;;13.60;12.15;;;19.70;1.00;;;22.64;89.20;99899.06;5009675;27;119716;-79
2022/06/27 03:11:17;;;;;;;13.00;10.85;;;20.40;1.00;;;23.79;80.77;99906.00;5021464;27;129394;-80
2022/06/27 03:13:47;;;;;;;13.17;10.37;;;21.00;1.00;;;24.91;74.87;99906.91;5022993;27;129570;-78
2022/06/27 03:16:17;;;;;;;12.07;10.30;;;21.40;1.00;;;25.82;69.72;99908.19;5023245;27;120193;-78
2022/06/27 03:18:47;;;;;;;12.57;11.20;;;21.70;99.90;;;26.62;65.90;99904.88;5026255;27;119084;-78
2022/06/27 03:21:43;;;;;;;13.40;10.02;;;22.10;99.90;;;27.19;62.60;99909.91;5042933;27;130500;-79
2022/06/27 03:24:12;;;;;;;13.65;10.25;;;22.40;99.90;;;27.29;61.49;99904.63;5039272;27;129552;-76
2022/06/27 03:26:45;;;;;;;11.27;10.10;;;22.80;99.90;;;27.41;60.82;99912.44;5026065;27;120362;-79
2022/06/27 03:29:16;;;;;;;12.35;10.60;;;22.90;99.90;;;26.76;62.35;99915.91;5023031;27;119424;-78
2022/06/27 03:31:48;;;;;;;13.77;11.93;;;22.70;99.90;;;25.88;65.15;99910.53;5025908;27;130227;-76
2022/06/27 03:34:17;;;;;;;14.05;12.63;;;22.10;99.90;;;25.26;67.89;99910.00;5022547;27;129464;-76
2022/06/27 03:36:57;;;;;;;14.90;13.30;;;21.50;99.90;;;24.79;70.61;99918.41;5038440;27;121897;-79
2022/06/27 03:39:26;;;;;;;15.27;13.60;;;21.30;99.90;;;24.46;72.57;99911.28;5039861;27;122053;-78
2022/06/27 03:41:56;;;;;;;15.98;14.38;;;21.30;99.90;;;24.17;74.96;99914.06;5015105;27;128570;-76
2022/06/27 03:44:25;;;;;;;17.05;15.18;;;21.30;99.90;;;23.90;76.33;99911.59;5045727;27;129089;-79
2022/06/27 03:46:55;;;;;;;15.93;13.63;;;21.30;99.90;;;23.58;77.93;99917.81;5011833;27;118434;-79
2022/06/27 03:52:30;;;;;;;16.30;14.70;;;21.30;1.00;;;23.37;79.82;99906.66;5035477;27;128561;-78
2022/06/27 03:54:59;;;;;;;14.70;13.20;;;21.40;99.90;;;23.30;81.41;99908.19;5033646;27;129873;-78
2022/06/27 03:57:30;;;;;;;15.43;13.93;;;21.40;1.00;;;23.33;81.10;99912.97;5036705;27;119080;-77
2022/06/27 03:59:59;;;;;;;16.30;13.05;;;21.50;1.00;;;23.43;80.98;99910.63;5048247;27;118506;-79
2022/06/27 04:02:27;;;;;;;15.75;13.85;;;21.60;1.00;;;23.56;80.33;99908.28;5020643;27;130131;-78
2022/06/27 04:05:16;;;;;;;15.60;13.95;;;21.70;99.90;;;23.71;80.56;99911.94;5042599;27;129023;-77
2022/06/27 04:07:46;;;;;;;16.02;13.73;;;21.90;99.90;;;23.78;79.41;99909.97;5040261;27;119261;-77
2022/06/27 04:10:15;;;;;;;14.73;13.18;;;22.00;99.90;;;23.75;80.04;99910.75;5025501;27;119002;-77
2022/06/27 04:12:45;;;;;;;15.05;13.55;;;22.00;99.90;;;23.77;80.28;99910.38;5021272;27;129679;-77
2022/06/27 04:15:42;;;;;;;17.00;14.65;;;22.10;99.90;;;23.71;80.72;99904.41;5043088;27;129524;-75
2022/06/27 04:18:30;;;;;;;14.55;13.15;;;22.10;99.90;;;23.68;80.56;99914.31;5039292;27;119609;-77
2022/06/27 04:21:02;;;;;;;16.65;14.00;;;22.10;99.90;;;23.73;81.22;99907.56;5040195;27;118837;-77
2022/06/27 04:23:44;;;;;;;14.85;13.45;;;22.20;99.90;;;23.81;80.52;99913.91;5021359;27;130060;-78
2022/06/27 04:26:26;;;;;;;15.68;14.05;;;22.30;99.90;;;23.89;81.22;99909.22;5041621;27;129123;-77
2022/06/27 04:28:57;;;;;;;15.73;14.13;;;22.30;99.90;;;23.98;79.67;99913.22;5020546;27;122656;-75
2022/06/27 04:31:26;;;;;;;15.13;12.80;;;22.40;99.90;;;24.12;80.18;99912.47;5024571;27;121008;-81
2022/06/27 04:33:55;;;;;;;15.15;13.55;;;22.60;99.90;;;24.26;79.47;99917.19;5037489;27;130658;-78
2022/06/27 04:36:24;;;;;;;17.45;13.30;;;22.70;99.90;;;24.44;79.20;99913.66;5011186;27;129392;-79
2022/06/27 04:38:53;;;;;;;16.25;14.32;;;22.90;99.90;;;24.55;78.02;99917.22;5020884;27;119401;-79
2022/06/27 04:41:41;;;;;;;14.90;13.52;;;23.00;99.90;;;24.57;77.58;99915.69;5042348;27;119403;-80
2022/06/27 04:44:11;;;;;;;15.43;13.68;;;23.00;99.90;;;24.72;77.60;99916.44;5020256;27;129973;-79
2022/06/27 04:46:41;;;;;;;16.67;13.15;;;23.20;99.90;;;24.74;76.36;99914.09;5024336;27;128599;-78
2022/06/27 04:49:37;;;;;;;13.57;12.23;;;23.30;99.90;;;25.03;76.17;99918.78;5038196;27;119956;-78
2022/06/27 04:52:07;;;;;;;14.60;12.40;;;23.50;99.90;;;25.28;75.02;99918.72;5025002;27;119374;-78
2022/06/27 04:54:38;;;;;;;13.25;11.85;;;23.70;99.90;;;25.32;74.28;99916.75;5036225;27;130046;-77
2022/06/27 04:57:08;;;;;;;13.65;12.35;;;23.80;99.90;;;25.30;74.17;99910.81;5020422;27;129438;-78
2022/06/27 04:59:40;;;;;;;14.25;12.23;;;23.80;99.90;;;25.26;75.60;99923.91;5038468;27;119859;-77
2022/06/27 05:02:21;;;;;;;13.18;11.30;;;23.80;99.90;;;25.19;75.41;99932.25;5024778;27;119312;-77
2022/06/27 05:04:50;;;;;;;13.15;11.18;;;23.80;99.90;;;25.41;75.37;99927.44;5006943;27;129400;-77
2022/06/27 05:07:18;;;;;;;13.02;11.40;;;24.00;99.90;;;25.46;74.49;99925.03;5031157;27;129393;-77
2022/06/27 05:09:47;;;;;;;11.98;10.48;;;24.10;99.90;;;25.88;71.84;99921.66;5017204;28;119815;-77
2022/06/27 05:12:15;;;;;;;10.38;9.10;;;24.50;99.90;;;26.04;66.74;99919.22;5018697;28;119385;-75
2022/06/27 05:14:46;;;;;;;11.98;9.27;;;24.60;99.90;;;26.17;65.24;99923.09;4999277;28;129910;-75
2022/06/27 05:17:14;;;;;;;10.10;9.02;;;24.80;99.90;;;26.39;65.53;99925.72;5003213;28;129459;-78
2022/06/27 05:19:44;;;;;;;10.45;9.35;;;25.00;99.90;;;26.68;65.61;99922.75;5018026;27;121903;-78
2022/06/27 05:22:12;;;;;;;9.27;8.30;;;25.20;99.90;;;27.02;64.52;99930.34;5024050;27;121519;-80
2022/06/27 05:24:42;;;;;;;12.52;8.65;;;25.40;99.90;;;27.18;63.64;99927.03;5020675;27;130000;-81
2022/06/27 05:27:10;;;;;;;12.65;8.90;;;25.50;99.90;;;27.24;62.69;99923.34;5027231;27;129774;-80
2022/06/27 05:29:39;;;;;;;10.15;8.05;;;25.50;99.90;;;27.47;63.71;99930.28;5003842;27;119588;-80
2022/06/27 05:32:10;;;;;;;8.95;8.05;;;25.60;99.90;;;27.72;61.80;99926.38;5021662;27;119544;-81
2022/06/27 05:34:40;;;;;;;11.55;8.35;;;25.70;99.90;;;27.83;61.15;99927.06;5019272;27;129902;-80
2022/06/27 05:37:09;;;;;;;10.32;8.45;;;25.90;99.90;;;27.92;61.50;99930.09;5039343;27;129321;-81
2022/06/27 05:39:40;;;;;;;9.77;8.23;;;26.00;99.90;;;27.79;60.27;99926.28;5021058;27;119342;-78
2022/06/27 05:42:09;;;;;;;10.05;8.13;;;26.00;99.90;;;27.95;60.71;99934.06;5021503;27;118633;-82
2022/06/27 05:44:38;;;;;;;11.85;8.18;;;26.10;99.90;;;28.05;58.56;99930.34;5006416;27;128753;-77
2022/06/27 05:47:10;;;;;;;9.23;7.32;;;26.10;99.90;;;27.95;58.54;99937.63;5054820;27;129646;-80
2022/06/27 05:49:48;;;;;;;11.18;7.15;;;26.20;99.90;;;28.24;58.42;99928.88;5024555;27;119054;-80
2022/06/27 05:52:17;;;;;;;10.63;6.95;;;26.40;99.90;;;28.43;58.56;99937.75;5021026;27;119463;-78
2022/06/27 05:54:47;;;;;;;13.93;7.45;;;26.30;99.90;;;28.39;56.35;99928.63;5057840;27;129666;-79
2022/06/27 05:57:16;;;;;;;8.63;7.28;;;26.40;99.90;;;28.48;55.94;99932.44;5007392;27;130326;-74
2022/06/27 05:59:46;;;;;;;10.02;7.28;;;26.50;99.90;;;28.59;57.09;99937.88;5007668;27;118739;-81
2022/06/27 06:02:16;;;;;;;9.73;7.03;;;26.60;99.90;;;28.83;55.97;99938.69;5055349;27;119063;-81
2022/06/27 06:04:44;;;;;;;8.65;6.82;;;26.80;99.90;;;29.01;55.81;99935.56;5020803;27;132177;-82
2022/06/27 06:07:14;;;;;;;9.52;7.22;;;26.90;99.90;;;29.09;52.99;99935.44;5057541;27;129533;-82
2022/06/27 06:09:44;;;;;;;9.25;6.75;;;26.90;99.90;;;28.93;54.57;99934.13;5037785;27;122116;-78
2022/06/27 06:12:13;;;;;;;9.13;7.15;;;26.90;99.90;;;29.03;54.56;99935.94;5024278;27;121517;-83
2022/06/27 06:14:43;;;;;;;9.18;6.85;;;27.10;99.90;;;29.21;55.90;99938.41;5053948;27;129866;-78
2022/06/27 06:17:12;;;;;;;8.32;6.50;;;27.30;99.90;;;29.43;54.09;99940.00;5020566;27;129669;-82
2022/06/27 06:19:42;;;;;;;12.18;5.93;;;27.40;99.90;;;29.58;53.30;99941.28;5038900;27;119836;-75
2022/06/27 06:22:12;;;;;;;8.40;5.20;;;27.50;99.90;;;29.63;50.87;99951.94;5020711;27;119510;-81
2022/06/27 06:24:41;;;;;;;8.77;5.90;;;27.50;99.90;;;29.63;51.93;99946.34;5022278;27;130578;-76
2022/06/27 06:27:09;;;;;;;7.68;6.18;;;27.60;99.90;;;29.59;50.35;99954.03;5044086;27;129550;-80
2022/06/27 06:29:41;;;;;;;9.40;6.50;;;27.50;99.90;;;29.80;52.54;99938.06;5042431;27;119293;-80
2022/06/27 06:32:12;;;;;;;11.73;8.27;;;27.50;99.90;;;29.86;51.29;99950.31;5024310;27;118728;-83
2022/06/27 06:34:44;;;;;;;12.05;9.23;;;27.60;99.90;;;30.02;50.80;99947.53;5025630;27;129696;-81
2022/06/27 06:37:13;;;;;;;15.38;9.70;;;27.80;99.90;;;30.26;49.32;99941.78;5010191;27;128951;-82
2022/06/27 06:39:43;;;;;;;15.05;9.27;;;28.00;99.90;;;30.12;50.09;99942.91;5060807;27;119265;-80
2022/06/27 06:42:12;;;;;;;12.23;8.90;;;27.80;99.90;;;30.07;49.21;99940.63;5043774;27;118615;-80
2022/06/27 06:44:52;;;;;;;11.88;8.32;;;27.90;99.90;;;30.19;49.21;99941.97;5023660;27;130035;-80
2022/06/27 06:47:29;;;;;;;15.60;10.00;;;27.90;99.90;;;30.24;50.33;99938.66;5027108;27;129095;-72
2022/06/27 06:50:09;;;;;;;18.90;9.23;;;28.00;99.90;;;30.03;50.54;99935.13;5023783;27;119277;-77
2022/06/27 06:52:39;;;;;;;13.60;10.20;;;27.90;99.90;;;30.13;50.18;99943.72;5042078;27;119293;-80
2022/06/27 06:55:11;;;;;;;14.20;9.10;;;28.00;99.90;;;30.44;51.26;99941.41;5041658;27;129937;-83
2022/06/27 06:57:39;;;;;;;11.90;7.80;;;28.30;99.90;;;30.35;48.98;99927.97;5023210;27;129464;-81
2022/06/27 07:00:10;;;;;;;10.93;7.38;;;28.20;99.90;;;30.60;50.37;99937.81;5040381;27;122579;-81
2022/06/27 07:02:39;;;;;;;12.50;7.32;;;28.30;99.90;;;30.66;48.65;99933.25;5026652;27;120834;-81
2022/06/27 07:05:11;;;;;;;10.27;6.97;;;28.10;99.90;;;30.36;46.20;99939.97;5041480;27;131388;-76
2022/06/27 07:07:42;;;;;;;11.50;8.90;;;28.20;99.90;;;30.51;49.01;99929.22;5041398;27;129770;-81
2022/06/27 07:10:14;;;;;;;14.52;8.55;;;28.40;99.90;;;30.78;48.50;99940.16;5026707;27;118959;-75
2022/06/27 07:12:44;;;;;;;11.75;7.93;;;28.60;99.90;;;30.64;46.66;99927.31;5041609;27;119456;-85
2022/06/27 07:15:14;;;;;;;11.00;7.20;;;28.50;99.90;;;31.00;47.51;99932.00;5022846;27;129524;-79
2022/06/27 07:17:45;;;;;;;9.68;6.93;;;28.70;99.90;;;31.14;46.23;99930.81;5026394;27;128933;-81
2022/06/27 07:20:19;;;;;;;11.02;6.53;;;28.80;99.90;;;31.11;44.56;99928.91;5026545;27;118862;-75
2022/06/27 07:22:48;;;;;;;11.18;6.38;;;28.80;99.90;;;31.23;46.32;99932.97;5041156;27;120326;-77
2022/06/27 07:25:18;;;;;;;8.50;6.47;;;28.90;99.90;;;31.50;45.16;99930.59;5024357;27;129761;-74
2022/06/27 07:27:47;;;;;;;6.63;5.32;;;29.30;99.90;;;31.53;43.74;99940.13;5040981;27;129440;-75
2022/06/27 07:30:16;;;;;;;12.02;6.03;;;29.20;99.90;;;31.64;43.34;99939.84;5040989;27;119093;-81
2022/06/27 07:32:45;;;;;;;7.32;5.10;;;29.30;99.90;;;30.91;44.40;99937.41;5041071;27;119975;-77
2022/06/27 07:35:16;;;;;;;8.95;5.45;;;28.90;99.90;;;30.93;45.73;99932.16;5040434;27;129640;-83
2022/06/27 07:37:48;;;;;;;9.15;6.10;;;29.00;99.90;;;30.82;45.27;99944.44;5040244;27;129855;-81
2022/06/27 07:40:19;;;;;;;9.70;6.57;;;28.60;99.90;;;31.14;45.39;99942.81;5025849;27;118778;-80
2022/06/27 07:42:48;;;;;;;8.30;6.78;;;28.60;99.90;;;31.68;45.25;99940.50;5057099;27;119693;-78
2022/06/27 07:45:18;;;;;;;11.07;8.02;;;29.10;99.90;;;31.77;43.61;99942.66;5040198;27;130865;-81
2022/06/27 07:47:47;;;;;;;10.45;7.28;;;29.00;99.90;;;31.42;44.71;99939.66;5023023;27;129977;-80
2022/06/27 07:53:14;;;;;;;14.85;6.78;;;28.60;99.90;;;31.05;45.44;99939.84;5025991;27;120827;-79
2022/06/27 07:55:47;;;;;;;10.35;6.97;;;28.30;99.90;;;30.90;45.51;99950.66;5040647;27;130450;-78
2022/06/27 07:58:16;;;;;;;10.23;7.07;;;28.30;99.90;;;30.93;45.55;99948.97;5022419;27;129895;-82
2022/06/27 08:00:47;;;;;;;11.55;7.57;;;28.40;99.90;;;31.17;46.45;99944.72;5040657;27;119628;-81
2022/06/27 08:06:09;;;;;;;10.07;6.82;;;28.40;99.90;;;31.28;45.45;99946.47;5021982;27;130215;-79
2022/06/27 08:08:39;;;;;;;11.02;6.50;;;28.40;99.90;;;31.72;43.92;99946.81;5025241;27;129760;-79
2022/06/27 08:11:11;;;;;;;12.40;6.00;;;28.70;99.90;;;31.61;43.84;99946.34;5040592;27;119412;-79
2022/06/27 08:13:41;;;;;;;10.18;5.85;;;28.70;99.90;;;31.52;44.70;99949.75;5025460;27;118531;-81
2022/06/27 08:16:12;;;;;;;9.52;6.20;;;28.50;99.90;;;31.45;44.44;99947.97;5039311;27;130472;-82
2022/06/27 08:18:42;;;;;;;9.02;6.03;;;28.60;99.90;;;31.61;44.22;99946.34;5039904;27;129637;-80
2022/06/27 08:21:13;;;;;;;12.55;6.15;;;28.60;99.90;;;31.37;44.53;99941.00;5008763;27;119346;-79
2022/06/27 08:23:42;;;;;;;10.10;6.35;;;28.50;99.90;;;31.92;44.09;99937.41;5040433;27;119312;-79
2022/06/27 08:26:12;;;;;;;10.23;6.38;;;29.00;99.90;;;32.41;42.47;99934.25;5040307;27;129845;-80
2022/06/27 08:28:43;;;;;;;8.95;5.97;;;29.40;99.90;;;33.01;40.05;99938.31;5025133;27;127901;-79
2022/06/27 08:31:14;;;;;;;8.45;5.53;;;29.70;99.90;;;33.37;39.81;99946.25;5040365;27;119461;-80
2022/06/27 08:33:44;;;;;;;15.10;5.72;;;30.00;99.90;;;33.59;40.32;99940.59;5040695;27;119355;-84
2022/06/27 08:36:15;;;;;;;10.05;6.80;;;30.40;99.90;;;33.03;38.67;99944.25;5025302;27;129907;-76
2022/06/27 08:38:50;;;;;;;7.47;5.70;;;30.00;90.70;;;31.98;41.14;99936.41;5039529;27;129314;-75
2022/06/27 08:41:21;;;;;;;8.63;5.07;;;29.50;97.60;;;31.85;42.64;99939.22;5041090;27;123108;-83
2022/06/27 08:43:55;;;;;;;9.77;5.45;;;29.40;99.90;;;32.18;41.68;99944.63;5040775;27;123346;-79
2022/06/27 08:46:24;;;;;;;9.10;5.80;;;29.40;99.90;;;32.18;41.57;99944.63;5039837;27;131540;-79
2022/06/27 08:48:53;;;;;;;9.00;6.40;;;29.30;99.90;;;31.96;41.46;99943.69;5021264;27;129121;-77
2022/06/27 08:51:23;;;;;;;9.30;5.22;;;28.90;99.90;;;31.83;41.92;99936.03;5039964;27;119727;-82
2022/06/27 08:53:55;;;;;;;8.55;5.55;;;28.80;99.90;;;31.75;42.74;99933.91;5025205;27;118317;-78
2022/06/27 08:56:25;;;;;;;9.68;5.55;;;28.80;99.90;;;32.00;42.94;99933.16;5039920;27;130812;-82
2022/06/27 08:58:55;;;;;;;9.82;6.20;;;28.80;99.90;;;31.98;42.29;99930.78;5025388;27;129737;-76
2022/06/27 09:01:27;;;;;;;8.82;5.75;;;29.00;99.90;;;32.07;40.43;99925.28;5024507;27;118863;-79
2022/06/27 09:04:01;;;;;;;10.05;5.80;;;29.30;97.60;;;31.98;41.35;99924.41;5040131;27;119545;-82
2022/06/27 09:06:35;;;;;;;10.90;6.20;;;29.40;99.90;;;32.05;42.97;99918.53;5038728;27;130038;-82
2022/06/27 09:09:08;;;;;;;8.13;6.45;;;29.40;99.90;;;31.78;41.28;99927.41;5021449;27;129684;-83
2022/06/27 09:11:39;;;;;;;8.40;5.40;;;29.00;99.90;;;31.82;41.82;99917.66;5041958;27;119144;-83
2022/06/27 09:14:34;;;;;;;7.97;4.55;;;28.90;99.90;;;31.90;41.07;99921.81;5039362;27;119128;-83
2022/06/27 09:17:09;;;;;;;12.05;5.80;;;28.90;99.90;;;31.89;41.21;99917.41;5024641;27;127671;-79
2022/06/27 09:19:50;;;;;;;7.38;5.50;;;29.00;99.90;;;31.65;40.87;99918.97;5021509;27;130665;-80
2022/06/27 09:22:23;;;;;;;11.23;6.53;;;28.90;97.40;;;31.56;41.33;99921.66;5024182;27;118634;-79
2022/06/27 09:25:05;;;;;;;8.75;5.72;;;28.90;99.90;;;31.66;40.50;99914.94;5040023;27;119379;-83
2022/06/27 09:27:43;;;;;;;9.00;5.45;;;29.10;96.40;;;32.23;41.60;99924.41;5039409;27;130757;-79
2022/06/27 09:30:26;;;;;;;7.63;5.40;;;29.60;99.90;;;32.88;39.76;99924.28;5038970;27;129385;-79
2022/06/27 09:32:58;;;;;;;10.95;5.43;;;30.30;92.70;;;33.50;38.94;99926.47;5038465;27;122103;-82
2022/06/27 09:35:30;;;;;;;7.97;5.32;;;30.70;81.80;;;33.65;36.78;99916.25;5038896;27;122292;-77
2022/06/27 09:38:03;;;;;;;8.68;5.07;;;30.80;46.80;;;32.66;37.93;99921.44;5038686;27;129551;-77
2022/06/27 09:40:34;;;;;;;9.10;5.47;;;30.10;59.10;;;32.05;38.86;99924.16;5021314;27;129524;-78
2022/06/27 09:43:03;;;;;;;6.93;5.00;;;29.70;70.60;;;31.84;40.87;99923.59;5039201;27;120260;-76
2022/06/27 09:45:32;;;;;;;10.07;5.53;;;29.50;91.50;;;32.08;39.63;99924.06;5021279;27;120535;-82
2022/06/27 09:48:04;;;;;;;8.25;5.45;;;29.70;78.00;;;32.28;38.72;99920.25;5024090;27;129013;-79
2022/06/27 09:50:39;;;;;;;12.35;5.57;;;29.80;67.60;;;31.59;39.17;99920.78;5039799;27;129442;-82
2022/06/27 09:53:09;;;;;;;8.93;5.60;;;29.40;71.90;;;31.50;39.84;99922.16;5024211;27;119577;-80
2022/06/27 09:55:41;;;;;;;11.30;5.55;;;29.40;70.60;;;31.57;41.97;99926.03;5039060;27;119470;-81
2022/06/27 09:58:12;;;;;;;7.97;4.85;;;29.40;99.90;;;32.52;38.81;99917.06;5037605;27;129657;-79
2022/06/27 10:00:43;;;;;;;7.53;4.90;;;30.10;72.10;;;33.21;38.21;99916.31;5041385;27;129835;-80
2022/06/27 10:03:12;;;;;;;8.02;5.20;;;30.10;64.00;;;33.00;37.51;99905.81;5042625;27;119423;-82
2022/06/27 10:05:43;;;;;;;8.38;5.00;;;29.50;68.80;;;32.74;38.81;99905.88;5042394;27;119462;-77
2022/06/27 10:08:14;;;;;;;9.57;5.18;;;29.30;91.10;;;33.06;38.62;99909.59;5027168;27;130118;-79
2022/06/27 10:11:07;;;;;;;7.70;5.35;;;30.00;68.20;;;33.31;37.84;99909.50;5042241;27;129798;-81
2022/06/27 10:13:39;;;;;;;9.30;5.65;;;30.60;67.60;;;33.30;37.64;99904.31;5042849;27;119802;-79
2022/06/27 10:16:12;;;;;;;8.80;4.30;;;30.40;70.00;;;33.72;36.50;99903.19;5024752;27;118438;-82
2022/06/27 10:19:02;;;;;;;10.32;5.75;;;30.80;45.80;;;34.04;35.49;99897.06;5042660;27;129870;-82
2022/06/27 10:21:34;;;;;;;8.77;5.97;;;31.10;41.00;;;34.47;34.62;99899.38;5027252;27;128831;-83
2022/06/27 10:24:35;;;;;;;6.53;5.20;;;31.80;28.90;;;34.92;34.91;99901.47;5009017;27;120961;-80
2022/06/27 10:27:07;;;;;;;6.25;5.28;;;31.80;36.40;;;34.87;33.63;99888.00;5026995;27;120970;-83
2022/06/27 10:29:44;;;;;;;9.02;5.70;;;31.80;21.30;;;35.03;34.58;99883.28;5026789;27;129532;-79